EST,Max TemperatureF,Mean TemperatureF,Min TemperatureF,Max Dew PointF,MeanDew PointF,Min DewpointF,Max Humidity, Mean Humidity, Min Humidity, Max Sea Level PressureIn, Mean Sea Level PressureIn, Min Sea Level PressureIn, Max VisibilityMiles, Mean VisibilityMiles, Min VisibilityMiles, Max Wind SpeedMPH, Mean Wind SpeedMPH, Max Gust SpeedMPH,PrecipitationIn, CloudCover, Events, WindDirDegrees
2012-11-1,73,59,45,52,44,37,93,60,27,30.01,29.96,29.91,10,10,7,20,7,25,0.00,1,,263
2012-11-2,77,59,40,51,42,36,89,58,27,30.09,30.03,29.97,10,10,10,17,5,21,0.00,0,,256
2012-11-3,83,68,52,61,55,52,100,69,37,30.13,30.08,30.03,10,7,0,10,3,,0.00,1,Fog,248
2012-11-4,84,69,54,63,57,52,100,67,34,30.09,30.03,29.96,10,8,2,15,6,18,0.00,3,,231
2012-11-5,74,62,50,63,54,42,96,65,33,30.02,29.98,29.95,10,8,3,15,6,,0.00,3,,318
2012-11-6,72,60,48,56,53,47,96,75,53,29.99,29.90,29.82,10,8,2,15,5,20,0.16,5,Rain,2
2012-11-7,61,52,42,49,43,39,100,74,47,30.01,29.93,29.88,10,9,5,17,6,23,0.01,5,Rain,312
2012-11-8,66,53,39,46,42,39,100,70,40,30.19,30.11,30.01,10,8,5,13,5,17,0.00,1,,324
2012-11-9,71,54,37,51,39,28,100,61,21,30.30,30.25,30.19,10,10,9,10,1,14,0.00,1,,12
2012-11-10,72,56,39,55,47,37,100,72,44,30.36,30.32,30.27,10,9,7,14,3,17,0.00,1,,69
2012-11-11,78,65,52,61,58,54,100,74,47,30.36,30.32,30.28,10,9,5,17,6,23,0.00,4,,72
2012-11-12,78,68,58,67,63,57,100,81,62,30.29,30.24,30.19,10,8,2,15,3,18,0.08,7,Rain,106
2012-11-13,79,69,58,66,62,57,100,81,62,30.21,30.17,30.12,10,6,0,18,4,23,0.00,6,Fog,342
2012-11-14,63,59,55,59,57,55,100,95,90,30.27,30.22,30.18,10,4,1,18,11,25,0.00,8,,27
2012-11-15,61,56,50,56,51,48,100,86,72,30.23,30.18,30.14,10,6,1,12,7,17,0.00,8,,357
2012-11-16,55,53,50,50,49,48,93,88,83,30.25,30.21,30.19,10,8,2,14,7,16,0.00,8,,1
2012-11-17,62,58,53,52,50,46,89,81,72,30.27,30.23,30.19,10,10,10,20,11,24,0.00,8,,11
2012-11-18,71,62,52,54,49,46,86,70,53,30.27,30.22,30.16,10,10,10,17,8,24,0.00,6,,1
2012-11-19,59,57,54,54,52,50,93,84,75,30.21,30.16,30.12,10,10,9,14,6,18,0.00,8,,353
2012-11-20,71,62,52,54,52,48,96,72,47,30.14,30.08,30.03,10,10,10,12,5,18,0.00,6,,351
2012-11-21,70,59,48,52,48,43,93,65,37,30.12,30.08,30.04,10,10,10,14,5,,0.00,2,,359
2012-11-22,68,54,39,43,38,28,93,60,26,30.21,30.16,30.11,10,10,10,17,5,26,0.00,0,,358
2012-11-23,72,53,34,48,40,33,100,66,31,30.22,30.14,30.05,10,10,7,12,4,16,0.00,1,,276
2012-11-24,66,52,38,48,40,31,93,61,29,30.12,30.06,30.01,10,10,9,15,7,20,0.00,1,,298
2012-11-25,66,48,30,35,28,19,85,51,16,30.20,30.14,30.10,10,10,10,9,2,15,0.00,0,,322
2012-11-26,71,51,31,45,35,26,93,56,19,30.27,30.21,30.17,10,10,10,8,1,,0.00,2,,87
2012-11-27,76,60,44,60,54,43,93,75,57,30.19,30.15,30.09,10,10,3,14,5,17,T,6,Rain,307
2012-11-28,58,53,48,56,52,45,100,89,77,30.35,30.26,30.16,10,7,1,13,7,31,0.02,7,Rain,12
2012-11-29,67,56,45,54,49,43,100,82,63,30.37,30.33,30.31,10,7,2,18,7,24,0.00,1,,16
2012-11-30,74,61,47,58,53,46,100,79,57,30.33,30.29,30.24,10,7,1,13,4,16,0.00,4,,36